createdAt,value
2018-11-26T00:01:59.016Z,75.90
2018-11-26T00:04:26.651Z,76.20
2018-11-26T00:06:54.176Z,76.20
2018-11-26T00:09:21.786Z,75.60
2018-11-26T00:14:18.170Z,75.90
2018-11-26T00:16:45.935Z,75.80
2018-11-26T00:19:14.004Z,75.70
2018-11-26T00:21:41.643Z,75.70
2018-11-26T00:24:09.656Z,75.50
2018-11-26T00:29:05.337Z,75.30
2018-11-26T00:31:32.917Z,75.50
2018-11-26T00:34:00.465Z,75.10
2018-11-26T00:36:28.128Z,75.00
2018-11-26T00:38:55.737Z,75.00
2018-11-26T00:41:23.436Z,74.60
2018-11-26T00:43:51.011Z,74.90
2018-11-26T00:46:18.643Z,74.50
2018-11-26T00:48:46.365Z,75.10
2018-11-26T00:51:13.965Z,74.90
2018-11-26T01:06:46.009Z,74.50
2018-11-26T01:09:13.521Z,74.20
2018-11-26T01:11:41.079Z,74.90
2018-11-26T01:14:08.753Z,74.80
2018-11-26T01:16:36.881Z,74.20
2018-11-26T01:19:04.715Z,74.10
2018-11-26T01:21:33.040Z,74.70
2018-11-26T01:24:00.602Z,74.50
2018-11-26T01:26:28.075Z,74.40
2018-11-26T01:28:55.635Z,74.30
2018-11-26T01:31:23.141Z,74.80
2018-11-26T01:33:50.893Z,74.20
2018-11-26T01:36:18.416Z,74.10
2018-11-26T01:38:45.953Z,74.90
2018-11-26T01:41:13.553Z,74.80
2018-11-26T01:43:41.136Z,74.90
2018-11-26T01:46:11.016Z,74.90
2018-11-26T01:48:40.504Z,74.90
2018-11-26T01:51:08.037Z,75.00
2018-11-26T01:53:35.488Z,74.90
2018-11-26T01:56:03.022Z,74.80
2018-11-26T01:58:30.641Z,75.00
2018-11-26T02:00:58.150Z,74.30
2018-11-26T02:03:25.736Z,74.90
2018-11-26T02:05:53.285Z,74.10
2018-11-26T02:08:20.750Z,74.30
2018-11-26T02:10:48.263Z,74.30
2018-11-26T02:13:15.784Z,73.90
2018-11-26T02:15:43.332Z,73.70
2018-11-26T02:18:11.265Z,73.50
2018-11-26T02:20:38.770Z,73.60
2018-11-26T02:23:06.765Z,73.90
2018-11-26T02:25:34.381Z,73.60
2018-11-26T02:28:01.970Z,74.30
2018-11-26T02:30:29.474Z,73.20
2018-11-26T02:32:57.131Z,73.60
2018-11-26T02:35:24.654Z,73.20
2018-11-26T02:37:52.844Z,73.40
2018-11-26T02:40:25.704Z,73.50
2018-11-26T02:42:53.292Z,73.30
2018-11-26T02:45:20.787Z,73.40
2018-11-26T02:47:48.388Z,72.40
2018-11-26T02:50:15.878Z,73.40
2018-11-26T02:52:43.366Z,73.80
2018-11-26T02:55:10.864Z,73.00
2018-11-26T02:57:38.355Z,73.00
2018-11-26T03:00:08.074Z,74.00
2018-11-26T03:02:35.595Z,74.00
2018-11-26T03:05:03.249Z,73.50
2018-11-26T03:07:31.312Z,73.10
2018-11-26T03:09:58.853Z,73.70
2018-11-26T03:12:27.403Z,72.90
2018-11-26T03:14:55.608Z,73.20
2018-11-26T03:17:23.082Z,73.20
2018-11-26T03:19:50.525Z,74.00
2018-11-26T03:22:18.603Z,74.60
2018-11-26T03:24:46.189Z,73.80
2018-11-26T03:27:13.798Z,74.00
2018-11-26T03:29:41.396Z,74.60
2018-11-26T03:32:08.932Z,74.30
2018-11-26T03:34:36.423Z,74.40
2018-11-26T03:37:03.983Z,74.30
2018-11-26T03:39:31.457Z,74.10
2018-11-26T03:41:59.021Z,74.00
2018-11-26T03:44:26.576Z,74.50
2018-11-26T03:46:54.125Z,74.80
2018-11-26T03:49:21.607Z,74.60
2018-11-26T03:51:49.100Z,74.20
2018-11-26T03:54:16.713Z,74.00
2018-11-26T03:56:44.264Z,73.60
2018-11-26T03:59:11.695Z,74.20
2018-11-26T04:01:39.199Z,74.40
2018-11-26T04:04:06.733Z,74.00
2018-11-26T04:06:34.206Z,74.10
2018-11-26T04:09:01.730Z,73.00
2018-11-26T04:11:29.182Z,73.10
2018-11-26T04:13:56.713Z,73.60
2018-11-26T04:16:24.314Z,73.30
2018-11-26T04:18:51.896Z,73.50
2018-11-26T04:21:19.415Z,72.80
2018-11-26T04:23:46.868Z,73.00
2018-11-26T04:26:14.392Z,73.80
2018-11-26T04:28:42.025Z,73.50
2018-11-26T04:31:09.560Z,72.20
2018-11-26T04:33:37.619Z,72.90
2018-11-26T04:38:32.649Z,72.50
2018-11-26T04:41:00.146Z,72.90
2018-11-26T04:43:27.720Z,73.00
2018-11-26T04:45:55.274Z,73.70
2018-11-26T04:48:22.738Z,73.30
2018-11-26T04:50:50.200Z,72.20
2018-11-26T04:53:17.727Z,72.80
2018-11-26T04:55:45.267Z,72.90
2018-11-26T04:58:12.897Z,72.90
2018-11-26T05:00:40.407Z,73.30
2018-11-26T05:03:08.170Z,72.40
2018-11-26T05:05:35.862Z,72.70
2018-11-26T05:08:03.394Z,72.40
2018-11-26T05:10:30.960Z,72.20
2018-11-26T05:12:58.419Z,72.10
2018-11-26T05:15:25.880Z,72.90
2018-11-26T05:17:53.489Z,73.40
2018-11-26T05:20:21.032Z,72.10
2018-11-26T05:22:48.515Z,73.00
2018-11-26T05:25:16.029Z,72.10
2018-11-26T05:27:43.463Z,72.00
2018-11-26T05:30:12.520Z,73.70
2018-11-26T05:32:40.309Z,72.80
2018-11-26T05:35:09.281Z,72.70
2018-11-26T05:37:36.757Z,72.00
2018-11-26T05:40:07.114Z,72.60
2018-11-26T05:42:34.593Z,71.90
2018-11-26T05:45:02.151Z,72.20
2018-11-26T05:47:29.653Z,72.10
2018-11-26T05:49:57.199Z,72.80
2018-11-26T05:52:24.734Z,72.60
2018-11-26T05:54:52.234Z,72.30
2018-11-26T05:57:19.821Z,72.50
2018-11-26T06:02:14.830Z,72.00
2018-11-26T06:04:42.423Z,72.00
2018-11-26T06:07:10.036Z,72.70
2018-11-26T06:09:37.575Z,72.00
2018-11-26T06:12:05.409Z,72.00
2018-11-26T06:14:33.094Z,72.00
2018-11-26T06:17:00.557Z,72.00
2018-11-26T06:19:28.871Z,72.00
2018-11-26T06:21:58.800Z,72.60
2018-11-26T06:24:26.525Z,72.00
2018-11-26T06:26:54.648Z,72.10
2018-11-26T06:29:22.345Z,72.00
2018-11-26T06:31:49.821Z,72.10
2018-11-26T06:34:18.059Z,72.70
2018-11-26T06:36:47.269Z,72.10
2018-11-26T06:39:14.823Z,72.00
2018-11-26T06:41:42.388Z,72.10
2018-11-26T06:44:10.197Z,72.10
2018-11-26T06:46:37.666Z,71.50
2018-11-26T06:49:05.484Z,72.00
2018-11-26T06:51:33.151Z,72.00
2018-11-26T06:54:00.714Z,71.90
2018-11-26T07:01:23.011Z,71.90
2018-11-26T07:03:50.504Z,70.80
2018-11-26T07:06:18.083Z,71.60
2018-11-26T07:08:45.545Z,72.00
2018-11-26T07:12:37.545Z,71.80
2018-11-26T07:15:07.625Z,71.30
2018-11-26T07:17:35.150Z,71.00
2018-11-26T07:20:03.148Z,72.00
2018-11-26T07:22:30.649Z,71.90
2018-11-26T07:24:58.289Z,72.20
2018-11-26T07:27:25.830Z,71.90
2018-11-26T07:29:53.343Z,70.90
2018-11-26T07:32:20.914Z,71.90
2018-11-26T07:34:48.397Z,72.00
2018-11-26T07:37:15.824Z,70.80
2018-11-26T07:39:43.285Z,71.10
2018-11-26T07:42:10.752Z,70.80
2018-11-26T07:44:38.930Z,70.80
2018-11-26T07:47:06.442Z,70.60
2018-11-26T07:49:35.394Z,70.70
2018-11-26T07:52:03.086Z,71.10
2018-11-26T07:54:30.648Z,71.70
2018-11-26T07:56:58.170Z,70.80
2018-11-26T07:59:25.659Z,70.60
2018-11-26T08:01:53.193Z,69.80
2018-11-26T08:04:20.836Z,70.00
2018-11-26T08:06:48.427Z,69.80
2018-11-26T08:09:16.089Z,70.20
2018-11-26T08:11:43.613Z,70.50
2018-11-26T08:14:11.243Z,69.60
2018-11-26T08:16:39.385Z,69.80
2018-11-26T08:19:06.846Z,69.20
2018-11-26T08:21:34.420Z,69.50
2018-11-26T08:24:01.955Z,69.00
2018-11-26T08:26:29.542Z,69.30
2018-11-26T08:31:24.434Z,69.10
2018-11-26T08:33:51.895Z,69.40
2018-11-26T08:36:24.976Z,69.90
2018-11-26T08:38:58.353Z,69.10
2018-11-26T08:41:31.568Z,68.90
2018-11-26T08:44:09.317Z,68.40
2018-11-26T08:46:31.142Z,68.80
2018-11-26T08:49:06.587Z,69.10
2018-11-26T08:51:35.321Z,68.80
2018-11-26T08:54:02.853Z,68.60
2018-11-26T08:56:30.470Z,69.10
2018-11-26T08:58:58.055Z,68.40
2018-11-26T09:01:31.210Z,69.00
2018-11-26T09:04:03.280Z,68.50
2018-11-26T09:06:31.016Z,69.10
2018-11-26T09:08:58.513Z,68.50
2018-11-26T09:11:26.206Z,69.10
2018-11-26T09:13:53.726Z,68.60
2018-11-26T09:16:21.217Z,68.70
2018-11-26T09:18:48.860Z,68.70
2018-11-26T09:21:17.215Z,68.50
2018-11-26T09:23:48.482Z,67.70
2018-11-26T09:26:15.999Z,67.40
2018-11-26T09:28:43.498Z,67.80
2018-11-26T09:31:11.197Z,67.80
2018-11-26T09:33:38.706Z,67.80
2018-11-26T09:36:06.846Z,66.60
2018-11-26T09:38:34.464Z,66.40
2018-11-26T09:41:02.157Z,67.20
2018-11-26T09:43:29.577Z,67.00
2018-11-26T09:48:25.524Z,65.60
2018-11-26T09:50:53.041Z,65.60
2018-11-26T09:53:20.546Z,65.10
2018-11-26T09:55:48.045Z,65.10
2018-11-26T09:58:15.601Z,64.80
2018-11-26T10:00:43.079Z,65.20
2018-11-26T10:03:10.773Z,65.20
2018-11-26T10:05:38.787Z,64.20
2018-11-26T10:08:06.343Z,63.40
2018-11-26T10:10:33.866Z,63.30
2018-11-26T10:13:01.455Z,63.80
2018-11-26T10:15:29.096Z,63.30
2018-11-26T10:17:56.641Z,63.80
2018-11-26T10:20:24.293Z,63.00
2018-11-26T10:22:53.357Z,63.30
2018-11-26T10:25:22.498Z,61.40
2018-11-26T10:27:50.288Z,62.40
2018-11-26T10:30:19.673Z,61.50
2018-11-26T10:32:48.124Z,61.10
2018-11-26T10:35:16.804Z,58.40
2018-11-26T10:37:44.664Z,59.80
2018-11-26T10:40:28.130Z,60.10
2018-11-26T10:42:55.623Z,59.40
2018-11-26T10:46:48.363Z,60.20
2018-11-26T10:49:15.879Z,58.30
2018-11-26T10:51:43.316Z,58.60
2018-11-26T10:54:10.932Z,58.80
2018-11-26T10:56:38.584Z,59.50
2018-11-26T11:04:06.457Z,58.20
2018-11-26T11:06:34.157Z,58.10
2018-11-26T11:09:01.738Z,58.50
2018-11-26T11:11:29.183Z,60.00
2018-11-26T11:21:18.981Z,57.10
2018-11-26T11:26:13.963Z,58.20
2018-11-26T11:28:41.499Z,58.70
2018-11-26T11:31:09.107Z,58.10
2018-11-26T11:36:04.170Z,57.40
2018-11-26T11:53:16.412Z,58.20
2018-11-26T11:55:43.942Z,58.50
2018-11-26T11:58:12.529Z,57.40
2018-11-26T12:00:41.094Z,58.50
2018-11-26T12:05:38.858Z,59.00
2018-11-26T12:10:34.294Z,58.60
2018-11-26T12:13:01.814Z,58.60
2018-11-26T12:15:29.486Z,59.10
2018-11-26T12:17:57.127Z,59.20
2018-11-26T12:20:24.734Z,58.80
2018-11-26T12:22:52.278Z,59.30
2018-11-26T12:25:20.382Z,57.80
2018-11-26T12:30:19.126Z,58.50
2018-11-26T12:47:35.506Z,58.60
2018-11-26T12:50:03.172Z,58.60
2018-11-26T12:52:30.596Z,58.10
2018-11-26T12:54:58.192Z,58.10
2018-11-26T12:57:25.722Z,58.10
2018-11-26T12:59:53.204Z,59.60
2018-11-26T13:02:20.693Z,59.20
2018-11-26T13:14:38.813Z,58.50
2018-11-26T13:17:06.289Z,58.50
2018-11-26T13:19:34.113Z,59.10
2018-11-26T13:22:01.618Z,59.40
2018-11-26T13:24:29.232Z,60.00
2018-11-26T13:29:24.181Z,61.10
2018-11-26T13:31:51.767Z,61.00
2018-11-26T13:35:44.358Z,61.70
2018-11-26T13:38:12.146Z,62.50
2018-11-26T13:40:39.805Z,63.00
2018-11-26T13:43:08.485Z,62.20
2018-11-26T13:45:37.633Z,62.90
2018-11-26T13:48:07.139Z,62.70
2018-11-26T13:50:37.210Z,63.00
2018-11-26T13:53:05.295Z,63.60
2018-11-26T13:55:32.826Z,63.00
2018-11-26T13:58:00.365Z,62.50
2018-11-26T14:00:27.933Z,62.40
2018-11-26T14:02:55.452Z,62.50
2018-11-26T14:05:22.939Z,68.10
2018-11-26T14:10:19.977Z,65.50
2018-11-26T14:12:52.736Z,61.60
2018-11-26T14:15:20.238Z,61.10
2018-11-26T14:17:47.731Z,60.90
2018-11-26T14:20:15.913Z,61.00
2018-11-26T14:25:12.905Z,64.20
2018-11-26T14:27:40.875Z,64.10
2018-11-26T14:30:27.067Z,62.50
2018-11-26T14:35:22.315Z,61.60
2018-11-26T14:37:54.015Z,63.20
2018-11-26T14:40:27.490Z,61.90
2018-11-26T14:45:22.553Z,62.80
2018-11-26T14:50:17.642Z,62.30
2018-11-26T14:55:14.393Z,62.50
2018-11-26T14:57:41.991Z,62.80
2018-11-26T15:00:21.569Z,63.50
2018-11-26T15:02:49.601Z,62.70
2018-11-26T15:10:15.471Z,62.50
2018-11-26T15:17:39.073Z,62.00
2018-11-26T15:20:10.072Z,63.50
2018-11-26T15:22:37.717Z,62.70
2018-11-26T15:27:33.986Z,63.20
2018-11-26T15:30:01.641Z,63.30
2018-11-26T15:32:29.241Z,63.60
2018-11-26T15:34:57.144Z,64.00
2018-11-26T15:37:24.732Z,63.30
2018-11-26T15:39:52.234Z,64.40
2018-11-26T15:42:19.875Z,63.00
2018-11-26T15:44:47.499Z,64.20
2018-11-26T15:47:15.019Z,63.00
2018-11-26T15:49:42.551Z,64.00
2018-11-26T15:52:10.163Z,63.60
2018-11-26T15:57:05.215Z,63.80
2018-11-26T15:59:32.783Z,64.40
2018-11-26T16:02:00.408Z,63.80
2018-11-26T16:04:27.940Z,63.80
2018-11-26T16:06:55.730Z,62.80
2018-11-26T16:09:23.308Z,63.30
2018-11-26T16:11:51.079Z,63.70
2018-11-26T16:14:18.554Z,64.00
2018-11-26T16:16:46.220Z,63.30
2018-11-26T16:19:23.918Z,63.80
2018-11-26T16:24:18.979Z,63.70
2018-11-26T16:26:46.599Z,63.10
2018-11-26T16:29:14.132Z,63.30
2018-11-26T16:31:41.652Z,63.80
2018-11-26T16:34:09.201Z,62.70
2018-11-26T16:36:37.617Z,63.10
2018-11-26T16:39:07.801Z,64.20
2018-11-26T16:41:39.895Z,63.10
2018-11-26T16:44:10.413Z,64.60
2018-11-26T16:46:38.178Z,63.30
2018-11-26T16:49:07.529Z,63.60
2018-11-26T16:59:02.061Z,63.80
2018-11-26T17:10:18.744Z,63.40
2018-11-26T17:12:49.109Z,64.00
2018-11-26T17:15:17.402Z,64.00
2018-11-26T17:17:45.068Z,64.40
2018-11-26T17:20:13.474Z,64.40
2018-11-26T17:22:41.211Z,64.30
2018-11-26T17:25:10.492Z,64.40
2018-11-26T17:27:38.571Z,64.30
2018-11-26T17:30:11.574Z,64.40
2018-11-26T17:32:39.113Z,64.30
2018-11-26T17:47:56.624Z,64.20
2018-11-26T17:50:29.982Z,64.30
2018-11-26T17:52:58.692Z,64.30
2018-11-26T17:55:27.150Z,64.20
2018-11-26T17:57:55.764Z,64.20
2018-11-26T18:00:27.312Z,64.20
2018-11-26T18:02:55.121Z,64.80
2018-11-26T18:05:25.268Z,64.20
2018-11-26T18:09:22.808Z,64.20
2018-11-26T18:11:49.183Z,64.20
2018-11-26T18:14:16.869Z,64.30
2018-11-26T18:16:46.124Z,64.20
2018-11-26T18:19:13.692Z,64.30
2018-11-26T18:21:41.304Z,64.30
2018-11-26T18:24:09.738Z,64.30
2018-11-26T18:26:38.393Z,64.30
2018-11-26T18:29:07.276Z,64.30
2018-11-26T18:31:34.771Z,64.30
2018-11-26T18:34:02.356Z,64.20
2018-11-26T18:36:30.175Z,64.10
2018-11-26T18:38:57.849Z,64.10
2018-11-26T18:41:25.444Z,64.70
2018-11-26T18:43:53.223Z,64.20
2018-11-26T18:46:20.826Z,64.20
2018-11-26T18:51:17.108Z,64.50
2018-11-26T18:53:44.744Z,64.30
2018-11-26T18:56:12.471Z,64.20
2018-11-26T19:08:07.869Z,64.10
2018-11-26T19:10:37.826Z,64.30
2018-11-26T19:13:10.446Z,64.30
2018-11-26T19:15:40.211Z,64.20
2018-11-26T19:18:17.980Z,64.30
2018-11-26T19:20:45.576Z,64.20
2018-11-26T19:23:13.280Z,64.20
2018-11-26T19:25:41.147Z,64.80
2018-11-26T19:28:09.021Z,64.60
2018-11-26T19:30:36.653Z,64.30
2018-11-26T19:33:06.197Z,64.30
2018-11-26T19:35:33.779Z,64.20
2018-11-26T19:38:01.866Z,64.10
2018-11-26T19:40:29.961Z,63.50
2018-11-26T19:42:57.530Z,63.90
2018-11-26T19:45:25.155Z,64.10
2018-11-26T19:47:52.868Z,64.30
2018-11-26T19:50:21.250Z,63.50
2018-11-26T19:57:46.443Z,64.10
2018-11-26T20:00:17.773Z,64.70
2018-11-26T20:02:47.861Z,63.70
2018-11-26T20:05:20.667Z,64.10
2018-11-26T20:07:48.526Z,64.10
2018-11-26T20:10:16.864Z,63.60
2018-11-26T20:12:45.400Z,63.90
2018-11-26T20:15:15.374Z,63.70
2018-11-26T20:17:43.003Z,63.90
2018-11-26T20:20:10.892Z,63.20
2018-11-26T20:22:38.602Z,64.20
2018-11-26T20:25:13.101Z,63.00
2018-11-26T20:27:41.357Z,63.60
2018-11-26T20:32:45.906Z,63.20
2018-11-26T20:35:14.069Z,63.00
2018-11-26T20:37:41.876Z,63.90
2018-11-26T20:40:11.309Z,63.30
2018-11-26T20:42:40.272Z,63.00
2018-11-26T20:45:11.767Z,63.30
2018-11-26T20:47:39.587Z,62.90
2018-11-26T20:50:10.808Z,63.40
2018-11-26T20:52:38.595Z,63.60
2018-11-26T20:55:09.843Z,63.30
2018-11-26T20:57:39.959Z,62.80
2018-11-26T21:00:12.550Z,62.80
2018-11-26T21:02:40.421Z,62.90
2018-11-26T21:05:08.586Z,63.10
2018-11-26T21:07:37.632Z,62.80
2018-11-26T21:10:18.902Z,62.90
2018-11-26T21:12:52.973Z,62.30
2018-11-26T21:15:21.622Z,62.40
2018-11-26T21:17:50.530Z,63.20
2018-11-26T21:20:24.041Z,62.70
2018-11-26T21:22:52.118Z,62.50
2018-11-26T21:25:20.025Z,62.40
2018-11-26T21:27:49.288Z,65.70
2018-11-26T21:30:18.180Z,64.20
2018-11-26T21:32:46.971Z,64.00
2018-11-26T21:35:16.745Z,65.30
2018-11-26T21:37:47.013Z,65.30
2018-11-26T21:40:20.302Z,62.30
2018-11-26T21:42:43.948Z,62.00
2018-11-26T21:45:16.599Z,62.10
2018-11-26T21:47:44.294Z,62.10
2018-11-26T21:50:14.328Z,61.60
2018-11-26T21:52:42.142Z,62.60
2018-11-26T21:55:13.639Z,62.00
2018-11-26T21:57:41.854Z,62.30
2018-11-26T22:00:15.567Z,62.40
2018-11-26T22:02:43.170Z,62.90
2018-11-26T22:05:13.396Z,61.80
2018-11-26T22:07:41.028Z,61.60
2018-11-26T22:12:38.461Z,61.90
2018-11-26T22:15:09.413Z,63.10
2018-11-26T22:17:37.745Z,62.00
2018-11-26T22:20:15.431Z,62.30
2018-11-26T22:27:42.556Z,62.00
2018-11-26T22:30:16.969Z,61.60
2018-11-26T22:32:44.652Z,62.20
2018-11-26T22:35:12.285Z,62.00
2018-11-26T22:37:43.328Z,62.30
2018-11-26T22:40:12.283Z,61.30
2018-11-26T22:58:14.719Z,62.10
2018-11-26T23:00:51.004Z,60.80
2018-11-26T23:03:20.639Z,61.80
2018-11-26T23:05:48.323Z,61.20
2018-11-26T23:08:15.982Z,60.40
2018-11-26T23:10:43.590Z,60.90
2018-11-26T23:13:11.151Z,60.70
2018-11-26T23:15:38.917Z,60.60
2018-11-26T23:18:07.092Z,60.60
2018-11-26T23:23:02.184Z,60.80
2018-11-26T23:25:29.722Z,61.20
2018-11-26T23:27:58.124Z,60.80
2018-11-26T23:32:57.008Z,60.70
2018-11-26T23:35:24.606Z,60.90
2018-11-26T23:37:52.211Z,60.80
2018-11-26T23:40:19.774Z,60.60
2018-11-26T23:42:47.475Z,61.40
2018-11-26T23:45:16.286Z,60.90
2018-11-26T23:47:44.516Z,60.60
2018-11-26T23:50:14.006Z,61.00
2018-11-26T23:52:41.791Z,60.50
2018-11-26T23:55:11.603Z,61.30
2018-11-26T23:57:39.454Z,60.90
